Time;durP1;ratioP1;P1;durP2;ratioP2;P2;SDS_P1;SDS_P2;PMS_P1;PMS_P2;Temp;Humidity;BMP_temperature;BMP_pressure;BME280_temperature;BME280_humidity;BME280_pressure;Samples;Min_cycle;Max_cycle;Signal;HPM_P1;HPM_P2
2023/02/18 00:02:05;;;;;;;7.20;4.90;;;;;;;;;;5065578;28;20105;-62
2023/02/18 00:04:30;;;;;;;6.07;5.07;;;;;;;;;;5064608;28;20037;-61
2023/02/18 00:06:56;;;;;;;6.30;5.07;;;;;;;;;;5062826;28;20346;-62
2023/02/18 00:09:21;;;;;;;6.10;5.20;;;;;;;;;;5047708;28;20119;-61
2023/02/18 00:11:46;;;;;;;7.20;5.37;;;;;;;;;;5066113;28;20040;-61
2023/02/18 00:14:12;;;;;;;8.25;5.32;;;;;;;;;;5064844;28;20910;-62
2023/02/18 00:16:37;;;;;;;7.97;5.35;;;;;;;;;;5064256;28;20037;-62
2023/02/18 00:19:03;;;;;;;6.83;5.33;;;;;;;;;;5065655;28;20063;-62
2023/02/18 00:21:29;;;;;;;7.03;5.20;;;;;;;;;;5065576;28;20275;-62
2023/02/18 00:23:54;;;;;;;7.32;4.90;;;;;;;;;;5064662;28;20048;-61
2023/02/18 00:26:19;;;;;;;7.33;5.03;;;;;;;;;;5065476;28;20037;-61
2023/02/18 00:28:47;;;;;;;7.57;5.25;;;;;;;;;;5065433;28;20777;-61
2023/02/18 00:31:17;;;;;;;7.20;5.65;;;;;;;;;;5065202;28;20247;-61
2023/02/18 00:33:42;;;;;;;;;;;;;;;;;;5016906;28;20496;-61
2023/02/18 00:36:09;;;;;;;8.65;5.43;;;;;;;;;;5059577;28;20368;-61
2023/02/18 00:38:34;;;;;;;7.15;5.50;;;;;;;;;;5060269;28;20032;-61
2023/02/18 00:40:59;;;;;;;7.70;5.30;;;;;;;;;;5057232;28;20033;-61
2023/02/18 00:43:25;;;;;;;8.25;6.07;;;;;;;;;;5062262;28;20384;-61
2023/02/18 00:45:50;;;;;;;7.25;5.20;;;;;;;;;;5057065;28;20075;-62
2023/02/18 00:48:15;;;;;;;7.47;5.57;;;;;;;;;;5062974;28;20040;-62
2023/02/18 00:50:40;;;;;;;7.33;5.63;;;;;;;;;;5065117;28;20328;-61
2023/02/18 00:53:06;;;;;;;7.75;5.88;;;;;;;;;;5064009;28;20286;-62
2023/02/18 00:55:31;;;;;;;8.80;6.17;;;;;;;;;;5047370;28;20096;-61
2023/02/18 00:57:56;;;;;;;7.17;5.27;;;;;;;;;;5065068;28;20266;-61
2023/02/18 01:00:21;;;;;;;7.50;5.43;;;;;;;;;;5064775;28;20277;-61
2023/02/18 01:02:47;;;;;;;7.38;5.68;;;;;;;;;;5064778;28;20041;-61
2023/02/18 01:05:12;;;;;;;8.25;5.70;;;;;;;;;;5059601;28;20437;-61
2023/02/18 01:07:37;;;;;;;7.60;5.70;;;;;;;;;;5055891;28;20029;-62
2023/02/18 01:10:03;;;;;;;7.60;5.43;;;;;;;;;;5049977;28;20887;-60
2023/02/18 01:12:28;;;;;;;7.15;5.40;;;;;;;;;;5046733;28;20334;-62
2023/02/18 01:14:53;;;;;;;7.00;5.70;;;;;;;;;;5063372;28;20056;-61
2023/02/18 01:17:18;;;;;;;7.80;5.63;;;;;;;;;;5045668;28;20033;-61
2023/02/18 01:19:43;;;;;;;7.50;5.00;;;;;;;;;;5065386;28;20037;-61
2023/02/18 01:22:09;;;;;;;7.93;5.70;;;;;;;;;;5066301;28;20036;-60
2023/02/18 01:24:34;;;;;;;7.82;6.10;;;;;;;;;;5066709;28;20044;-61
2023/02/18 01:26:59;;;;;;;7.20;5.85;;;;;;;;;;5061641;28;20527;-62
2023/02/18 01:29:24;;;;;;;7.47;5.70;;;;;;;;;;5055699;28;20044;-61
2023/02/18 01:31:50;;;;;;;7.17;5.70;;;;;;;;;;5048663;28;20279;-61
2023/02/18 01:34:15;;;;;;;7.97;6.07;;;;;;;;;;5049199;28;20298;-61
2023/02/18 01:36:40;;;;;;;7.25;5.70;;;;;;;;;;5063506;28;20319;-61
2023/02/18 01:39:05;;;;;;;7.57;5.77;;;;;;;;;;5057375;28;20068;-61
2023/02/18 01:41:31;;;;;;;7.15;5.20;;;;;;;;;;5066760;28;20286;-61
2023/02/18 01:44:15;;;;;;;7.40;5.47;;;;;;;;;;5066169;28;20048;-61
2023/02/18 01:46:40;;;;;;;8.07;5.85;;;;;;;;;;5054747;28;20288;-62
2023/02/18 01:49:05;;;;;;;8.17;5.67;;;;;;;;;;5066927;28;20487;-61
2023/02/18 01:51:31;;;;;;;8.03;5.77;;;;;;;;;;5067032;28;20287;-61
2023/02/18 01:54:08;;;;;;;7.95;5.82;;;;;;;;;;5048440;28;20294;-62
2023/02/18 01:56:33;;;;;;;8.05;6.05;;;;;;;;;;5045704;28;20582;-61
2023/02/18 01:58:59;;;;;;;8.77;6.33;;;;;;;;;;5062321;28;20032;-61
2023/02/18 02:01:24;;;;;;;8.75;6.00;;;;;;;;;;5049148;28;20037;-60
2023/02/18 02:03:49;;;;;;;8.75;6.20;;;;;;;;;;5066824;28;20121;-61
2023/02/18 02:06:17;;;;;;;7.63;5.67;;;;;;;;;;5067015;28;20024;-61
2023/02/18 02:08:42;;;;;;;8.60;5.85;;;;;;;;;;5052477;28;20303;-60
2023/02/18 02:11:15;;;;;;;7.60;5.65;;;;;;;;;;5031424;28;20091;-61
2023/02/18 02:13:44;;;;;;;8.88;6.15;;;;;;;;;;5026116;28;20255;-61
2023/02/18 02:16:30;;;;;;;7.07;5.70;;;;;;;;;;5039461;28;20041;-61
2023/02/18 02:19:09;;;;;;;7.05;5.60;;;;;;;;;;5065633;28;20072;-61
2023/02/18 02:21:34;;;;;;;8.20;5.90;;;;;;;;;;5066489;28;20040;-61
2023/02/18 02:24:25;;;;;;;7.40;5.60;;;;;;;;;;5066293;28;20125;-62
2023/02/18 02:26:56;;;;;;;7.97;5.50;;;;;;;;;;5033719;28;20423;-62
2023/02/18 02:29:25;;;;;;;6.90;5.40;;;;;;;;;;5064066;28;20037;-61
2023/02/18 02:31:55;;;;;;;7.40;5.40;;;;;;;;;;5051915;28;20043;-60
2023/02/18 02:34:39;;;;;;;7.68;5.75;;;;;;;;;;5044684;28;20052;-61
2023/02/18 02:37:13;;;;;;;8.65;5.72;;;;;;;;;;5054237;28;20508;-61
2023/02/18 02:39:44;;;;;;;7.53;5.65;;;;;;;;;;5042401;28;20519;-61
2023/02/18 02:42:09;;;;;;;7.20;5.30;;;;;;;;;;5069111;28;20575;-61
2023/02/18 02:44:40;;;;;;;7.63;6.00;;;;;;;;;;5069570;28;20052;-61
2023/02/18 02:47:08;;;;;;;7.82;6.00;;;;;;;;;;5032443;28;20024;-62
2023/02/18 02:49:53;;;;;;;8.70;6.20;;;;;;;;;;5035645;28;20013;-61
2023/02/18 02:52:37;;;;;;;8.63;6.03;;;;;;;;;;5064937;28;20032;-61
2023/02/18 02:55:07;;;;;;;8.35;6.28;;;;;;;;;;5030206;28;20048;-62
2023/02/18 02:57:36;;;;;;;7.82;6.32;;;;;;;;;;5044310;28;20416;-61
2023/02/18 03:00:03;;;;;;;8.35;6.38;;;;;;;;;;5059267;28;20080;-61
2023/02/18 03:02:47;;;;;;;7.38;5.70;;;;;;;;;;5044811;28;20039;-61
2023/02/18 03:05:14;;;;;;;8.30;5.80;;;;;;;;;;5065550;28;20044;-61
2023/02/18 03:07:45;;;;;;;8.00;6.05;;;;;;;;;;5046027;28;20431;-61
2023/02/18 03:10:20;;;;;;;7.55;5.90;;;;;;;;;;5063313;28;20040;-61
2023/02/18 03:12:54;;;;;;;7.07;5.63;;;;;;;;;;5065095;28;20452;-61
2023/02/18 03:15:23;;;;;;;6.80;5.38;;;;;;;;;;5065335;28;20114;-61
2023/02/18 03:17:48;;;;;;;8.48;5.80;;;;;;;;;;5059978;28;20047;-61
2023/02/18 03:20:19;;;;;;;8.00;5.93;;;;;;;;;;5065297;28;20024;-61
2023/02/18 03:22:45;;;;;;;7.93;5.72;;;;;;;;;;5065292;28;20403;-61
2023/02/18 03:25:11;;;;;;;7.57;5.68;;;;;;;;;;5044878;28;20094;-61
2023/02/18 03:27:48;;;;;;;7.25;5.55;;;;;;;;;;5039362;28;20044;-61
2023/02/18 03:30:20;;;;;;;7.97;5.93;;;;;;;;;;5030122;28;20036;-61
2023/02/18 03:32:46;;;;;;;7.85;5.88;;;;;;;;;;5046406;28;20040;-61
2023/02/18 03:35:12;;;;;;;7.47;5.55;;;;;;;;;;5046022;28;20045;-61
2023/02/18 03:37:38;;;;;;;8.13;5.72;;;;;;;;;;5026792;28;20037;-61
2023/02/18 03:40:04;;;;;;;6.80;5.13;;;;;;;;;;5028411;28;20038;-61
2023/02/18 03:42:29;;;;;;;8.50;5.95;;;;;;;;;;5043621;28;20040;-61
2023/02/18 03:44:54;;;;;;;7.87;5.67;;;;;;;;;;5046909;28;20536;-61
2023/02/18 03:47:19;;;;;;;8.27;6.03;;;;;;;;;;5041433;28;20275;-61
2023/02/18 03:49:45;;;;;;;8.37;6.10;;;;;;;;;;5063185;28;20040;-61
2023/02/18 03:52:10;;;;;;;7.90;5.53;;;;;;;;;;5064406;28;20274;-62
2023/02/18 03:54:35;;;;;;;8.13;6.10;;;;;;;;;;5063679;28;20048;-62
2023/02/18 03:57:00;;;;;;;7.90;6.00;;;;;;;;;;5063988;28;20048;-62
2023/02/18 03:59:26;;;;;;;8.23;6.07;;;;;;;;;;5064201;28;20040;-58
2023/02/18 04:01:51;;;;;;;7.43;5.90;;;;;;;;;;5062197;28;20810;-61
2023/02/18 04:04:16;;;;;;;7.77;5.90;;;;;;;;;;5064659;28;20032;-61
2023/02/18 04:06:41;;;;;;;7.78;5.57;;;;;;;;;;5028153;28;20028;-61
2023/02/18 04:09:07;;;;;;;7.20;5.53;;;;;;;;;;5028631;28;20020;-61
2023/02/18 04:11:34;;;;;;;7.35;5.60;;;;;;;;;;5040724;28;20805;-61
2023/02/18 04:13:59;;;;;;;8.15;5.70;;;;;;;;;;5027476;28;20119;-61
2023/02/18 04:16:25;;;;;;;9.23;5.50;;;;;;;;;;5064740;28;20111;-62
2023/02/18 04:18:50;;;;;;;7.00;5.53;;;;;;;;;;5060564;28;20133;-59
2023/02/18 04:21:15;;;;;;;6.83;5.53;;;;;;;;;;5029511;28;20353;-62
2023/02/18 04:23:40;;;;;;;7.93;5.20;;;;;;;;;;5030860;28;20782;-61
2023/02/18 04:26:06;;;;;;;8.40;5.80;;;;;;;;;;5063360;28;20270;-62
2023/02/18 04:28:31;;;;;;;6.60;5.05;;;;;;;;;;5061559;28;20097;-62
2023/02/18 04:30:56;;;;;;;6.43;4.90;;;;;;;;;;5064723;28;20025;-62
2023/02/18 04:33:21;;;;;;;6.70;5.37;;;;;;;;;;5051979;28;20840;-62
2023/02/18 04:35:46;;;;;;;7.27;5.50;;;;;;;;;;5062184;28;20313;-62
2023/02/18 04:38:12;;;;;;;6.78;5.43;;;;;;;;;;5025787;28;20009;-62
2023/02/18 04:40:37;;;;;;;7.60;5.75;;;;;;;;;;5020250;28;20027;-62
2023/02/18 04:43:03;;;;;;;6.50;5.00;;;;;;;;;;5063158;28;20051;-62
2023/02/18 04:45:28;;;;;;;8.63;5.40;;;;;;;;;;5063199;28;20107;-62
2023/02/18 04:47:53;;;;;;;6.43;5.43;;;;;;;;;;5044982;28;20028;-62
2023/02/18 04:50:18;;;;;;;6.87;5.10;;;;;;;;;;5062066;28;20117;-62
2023/02/18 04:52:44;;;;;;;6.25;4.88;;;;;;;;;;5026488;28;20025;-62
2023/02/18 04:55:09;;;;;;;6.67;4.90;;;;;;;;;;5067927;28;20020;-62
2023/02/18 04:57:34;;;;;;;6.05;4.88;;;;;;;;;;5032724;28;20081;-62
2023/02/18 04:59:59;;;;;;;6.20;5.07;;;;;;;;;;5044943;28;20048;-63
2023/02/18 05:02:25;;;;;;;6.57;5.00;;;;;;;;;;5064245;28;20166;-63
2023/02/18 05:04:50;;;;;;;6.70;5.17;;;;;;;;;;5067512;28;20274;-61
2023/02/18 05:07:15;;;;;;;6.97;5.37;;;;;;;;;;5049672;28;20662;-61
2023/02/18 05:09:40;;;;;;;7.30;5.50;;;;;;;;;;5063301;28;20579;-62
2023/02/18 05:12:06;;;;;;;6.90;5.40;;;;;;;;;;5065884;28;20270;-62
2023/02/18 05:14:31;;;;;;;5.97;5.03;;;;;;;;;;5066459;28;20298;-62
2023/02/18 05:16:56;;;;;;;6.80;4.97;;;;;;;;;;5066179;28;20048;-62
2023/02/18 05:19:21;;;;;;;6.57;4.83;;;;;;;;;;5066697;28;20290;-62
2023/02/18 05:21:47;;;;;;;6.37;5.13;;;;;;;;;;5066015;28;20259;-62
2023/02/18 05:24:12;;;;;;;6.77;5.20;;;;;;;;;;5060485;28;20283;-62
2023/02/18 05:26:37;;;;;;;7.70;4.93;;;;;;;;;;5066049;28;20685;-61
2023/02/18 05:29:02;;;;;;;6.67;5.00;;;;;;;;;;5066252;28;20408;-63
2023/02/18 05:31:28;;;;;;;6.35;4.70;;;;;;;;;;5067248;28;20040;-63
2023/02/18 05:33:53;;;;;;;6.80;4.97;;;;;;;;;;5061590;28;20067;-62
2023/02/18 05:36:18;;;;;;;8.50;5.00;;;;;;;;;;5067887;28;20453;-63
2023/02/18 05:38:43;;;;;;;7.70;5.43;;;;;;;;;;5048072;28;20476;-63
2023/02/18 05:41:08;;;;;;;8.27;5.13;;;;;;;;;;5046362;28;20702;-62
2023/02/18 05:46:17;;;;;;;7.93;5.68;;;;;;;;;;5060026;28;20513;-63
2023/02/18 05:48:43;;;;;;;6.03;5.03;;;;;;;;;;5066409;28;20070;-64
2023/02/18 05:51:08;;;;;;;6.40;5.00;;;;;;;;;;5066412;28;20642;-63
2023/02/18 05:53:33;;;;;;;6.67;4.70;;;;;;;;;;5065727;28;20283;-63
2023/02/18 05:55:58;;;;;;;7.03;5.00;;;;;;;;;;5066193;28;20130;-63
2023/02/18 05:58:23;;;;;;;6.60;4.80;;;;;;;;;;5066608;28;20173;-63
2023/02/18 06:00:49;;;;;;;7.03;4.83;;;;;;;;;;5051700;28;20127;-63
2023/02/18 06:03:14;;;;;;;6.33;4.83;;;;;;;;;;5061189;28;20271;-63
2023/02/18 06:05:39;;;;;;;5.53;4.47;;;;;;;;;;5065903;28;20275;-62
2023/02/18 06:08:04;;;;;;;6.63;5.37;;;;;;;;;;5029633;28;20271;-62
2023/02/18 06:10:29;;;;;;;6.60;5.17;;;;;;;;;;5065976;28;20039;-62
2023/02/18 06:12:55;;;;;;;6.33;4.73;;;;;;;;;;5064323;28;20032;-62
2023/02/18 06:15:20;;;;;;;6.15;4.90;;;;;;;;;;5066175;28;20060;-63
2023/02/18 06:17:45;;;;;;;7.47;5.10;;;;;;;;;;5059954;28;20041;-63
2023/02/18 06:20:11;;;;;;;6.53;5.00;;;;;;;;;;5066109;28;20303;-62
2023/02/18 06:22:36;;;;;;;6.63;5.05;;;;;;;;;;5056115;28;20279;-61
2023/02/18 06:25:01;;;;;;;7.10;5.30;;;;;;;;;;5042729;28;20041;-62
2023/02/18 06:27:26;;;;;;;8.80;5.07;;;;;;;;;;5058027;28;20029;-62
2023/02/18 06:29:51;;;;;;;7.37;5.37;;;;;;;;;;5047986;28;20048;-62
2023/02/18 06:32:17;;;;;;;7.33;5.23;;;;;;;;;;5065093;28;20094;-62
2023/02/18 06:34:42;;;;;;;6.33;4.70;;;;;;;;;;5065987;28;20048;-62
2023/02/18 06:37:07;;;;;;;7.17;5.00;;;;;;;;;;5059468;28;20783;-62
2023/02/18 06:39:32;;;;;;;6.87;4.93;;;;;;;;;;5063609;28;20666;-62
2023/02/18 06:41:58;;;;;;;7.77;5.13;;;;;;;;;;5043338;28;20337;-64
2023/02/18 06:44:24;;;;;;;4.78;4.25;;;;;;;;;;5064289;28;20047;-64
2023/02/18 06:46:49;;;;;;;7.07;4.80;;;;;;;;;;5065897;28;20044;-63
2023/02/18 06:49:14;;;;;;;7.33;5.13;;;;;;;;;;5045002;28;21018;-63
2023/02/18 06:51:39;;;;;;;6.37;4.93;;;;;;;;;;5033768;28;20555;-64
2023/02/18 06:54:05;;;;;;;6.50;4.80;;;;;;;;;;5041295;28;20749;-63
2023/02/18 06:56:30;;;;;;;6.68;5.05;;;;;;;;;;5047629;28;20271;-63
2023/02/18 06:58:56;;;;;;;6.37;5.00;;;;;;;;;;5047550;28;20040;-62
2023/02/18 07:01:21;;;;;;;6.77;4.80;;;;;;;;;;5065884;28;20052;-62
2023/02/18 07:03:46;;;;;;;6.07;4.77;;;;;;;;;;5062451;28;20120;-63
2023/02/18 07:06:11;;;;;;;7.03;5.27;;;;;;;;;;5065435;28;20266;-63
2023/02/18 07:08:37;;;;;;;6.60;4.87;;;;;;;;;;5052058;28;20275;-62
2023/02/18 07:11:03;;;;;;;6.43;5.10;;;;;;;;;;5059669;28;20037;-62
2023/02/18 07:13:28;;;;;;;7.65;5.43;;;;;;;;;;5047801;28;20459;-64
2023/02/18 07:15:53;;;;;;;6.70;5.20;;;;;;;;;;5064538;28;20064;-63
2023/02/18 07:18:18;;;;;;;7.30;5.17;;;;;;;;;;5064652;28;20710;-62
2023/02/18 07:20:44;;;;;;;6.67;5.00;;;;;;;;;;5047030;28;20302;-64
2023/02/18 07:23:10;;;;;;;6.03;5.10;;;;;;;;;;5033982;28;20125;-62
2023/02/18 07:25:35;;;;;;;6.82;4.88;;;;;;;;;;5061907;28;20124;-63
2023/02/18 07:28:00;;;;;;;7.03;5.35;;;;;;;;;;5063498;28;20540;-63
2023/02/18 07:30:25;;;;;;;6.83;4.97;;;;;;;;;;5065046;28;20510;-62
2023/02/18 07:32:51;;;;;;;6.77;4.80;;;;;;;;;;5042729;28;20326;-63
2023/02/18 07:35:16;;;;;;;6.37;4.83;;;;;;;;;;5064565;28;20291;-63
2023/02/18 07:37:47;;;;;;;6.70;5.18;;;;;;;;;;5052927;28;20041;-62
2023/02/18 07:40:13;;;;;;;6.65;4.80;;;;;;;;;;5064603;28;20037;-62
2023/02/18 07:42:38;;;;;;;6.93;5.57;;;;;;;;;;5063958;28;20111;-63
2023/02/18 07:45:03;;;;;;;6.50;4.67;;;;;;;;;;5061870;28;20032;-62
2023/02/18 07:47:28;;;;;;;6.43;5.30;;;;;;;;;;5059367;28;20037;-62
2023/02/18 07:49:54;;;;;;;6.83;5.07;;;;;;;;;;5056677;28;20561;-62
2023/02/18 07:52:19;;;;;;;5.80;4.60;;;;;;;;;;5046815;28;20596;-62
2023/02/18 07:54:44;;;;;;;6.43;5.03;;;;;;;;;;5065156;28;20420;-63
2023/02/18 07:57:09;;;;;;;7.67;5.17;;;;;;;;;;5062718;28;20416;-62
2023/02/18 07:59:34;;;;;;;6.38;4.60;;;;;;;;;;5064731;28;20512;-62
2023/02/18 08:02:00;;;;;;;6.40;4.57;;;;;;;;;;5063942;28;20562;-63
2023/02/18 08:04:25;;;;;;;7.30;4.83;;;;;;;;;;5051531;28;20508;-62
2023/02/18 08:06:50;;;;;;;7.40;5.37;;;;;;;;;;5064058;28;20306;-62
2023/02/18 08:09:16;;;;;;;7.43;5.03;;;;;;;;;;5064546;28;20044;-62
2023/02/18 08:11:41;;;;;;;7.50;5.20;;;;;;;;;;5033199;28;20402;-61
2023/02/18 08:14:06;;;;;;;6.53;4.80;;;;;;;;;;5052166;28;20041;-62
2023/02/18 08:16:31;;;;;;;7.10;5.47;;;;;;;;;;5063692;28;20643;-62
2023/02/18 08:18:57;;;;;;;6.30;5.20;;;;;;;;;;5064076;28;20279;-62
2023/02/18 08:21:23;;;;;;;6.87;5.07;;;;;;;;;;5064346;28;20405;-62
2023/02/18 08:23:48;;;;;;;6.72;4.78;;;;;;;;;;5020258;28;20279;-62
2023/02/18 08:26:13;;;;;;;6.65;4.82;;;;;;;;;;5063992;28;20053;-61
2023/02/18 08:28:38;;;;;;;6.80;4.67;;;;;;;;;;5063425;28;20037;-61
2023/02/18 08:31:04;;;;;;;7.10;5.00;;;;;;;;;;5064339;28;20786;-62
2023/02/18 08:33:29;;;;;;;6.00;4.90;;;;;;;;;;5064220;28;20594;-62
2023/02/18 08:35:54;;;;;;;7.75;5.32;;;;;;;;;;5041095;28;20048;-63
2023/02/18 08:38:20;;;;;;;6.47;4.90;;;;;;;;;;5064148;28;20037;-62
2023/02/18 08:40:45;;;;;;;7.50;5.28;;;;;;;;;;5063472;28;20511;-62
2023/02/18 08:43:10;;;;;;;6.97;5.23;;;;;;;;;;5061597;28;20033;-62
2023/02/18 08:45:37;;;;;;;6.93;5.18;;;;;;;;;;5064376;28;20285;-63
2023/02/18 08:48:02;;;;;;;7.18;5.40;;;;;;;;;;5045132;28;20164;-63
2023/02/18 08:50:27;;;;;;;7.53;5.25;;;;;;;;;;5064067;28;20041;-61
2023/02/18 08:52:52;;;;;;;6.97;5.23;;;;;;;;;;5063238;28;20037;-62
2023/02/18 08:55:20;;;;;;;6.20;4.90;;;;;;;;;;5063857;28;20366;-62
2023/02/18 08:57:46;;;;;;;6.78;4.93;;;;;;;;;;5064197;28;20024;-62
2023/02/18 09:00:12;;;;;;;6.40;4.88;;;;;;;;;;5064028;28;20048;-62
2023/02/18 09:02:37;;;;;;;5.68;4.55;;;;;;;;;;5063232;28;20120;-61
2023/02/18 09:05:03;;;;;;;7.45;5.07;;;;;;;;;;5045219;28;20029;-62
2023/02/18 09:07:28;;;;;;;5.63;4.45;;;;;;;;;;5063060;28;20032;-62
2023/02/18 09:09:53;;;;;;;6.57;5.10;;;;;;;;;;5063969;28;20044;-61
2023/02/18 09:12:19;;;;;;;6.95;5.15;;;;;;;;;;5061404;28;20036;-62
2023/02/18 09:14:46;;;;;;;7.93;5.15;;;;;;;;;;5056440;28;20052;-62
2023/02/18 09:17:11;;;;;;;7.32;5.00;;;;;;;;;;5045802;28;20036;-61
2023/02/18 09:19:36;;;;;;;7.17;4.73;;;;;;;;;;5063795;28;20032;-62
2023/02/18 09:22:01;;;;;;;7.60;5.47;;;;;;;;;;5062578;28;20303;-62
2023/02/18 09:24:26;;;;;;;6.88;5.07;;;;;;;;;;5043926;28;20075;-61
2023/02/18 09:26:53;;;;;;;7.40;5.23;;;;;;;;;;5062267;28;20434;-61
2023/02/18 09:29:18;;;;;;;6.78;5.05;;;;;;;;;;5060434;28;20040;-61
2023/02/18 09:31:44;;;;;;;7.30;4.88;;;;;;;;;;5049132;28;20033;-61
2023/02/18 09:34:09;;;;;;;5.80;4.85;;;;;;;;;;5056888;28;20425;-62
2023/02/18 09:36:34;;;;;;;7.87;4.83;;;;;;;;;;5063972;28;20048;-61
2023/02/18 09:38:59;;;;;;;6.45;5.20;;;;;;;;;;5060251;28;20865;-61
2023/02/18 09:41:29;;;;;;;8.23;5.10;;;;;;;;;;5066003;28;20039;-61
2023/02/18 09:43:54;;;;;;;;;;;;;;;;;;5048226;28;20033;-62
2023/02/18 09:46:24;;;;;;;6.32;5.00;;;;;;;;;;5059738;28;19947;-62
2023/02/18 09:48:50;;;;;;;6.65;4.40;;;;;;;;;;5032871;28;20403;-61
2023/02/18 09:51:15;;;;;;;6.35;4.95;;;;;;;;;;5048810;28;20698;-61
2023/02/18 09:53:41;;;;;;;6.65;4.78;;;;;;;;;;5064033;28;20040;-62
2023/02/18 09:56:07;;;;;;;6.75;4.95;;;;;;;;;;5063523;28;20052;-62
2023/02/18 09:58:33;;;;;;;5.75;4.70;;;;;;;;;;5041663;28;20117;-61
2023/02/18 10:01:16;;;;;;;7.20;4.87;;;;;;;;;;5067120;28;20456;-61
2023/02/18 10:03:43;;;;;;;5.68;4.25;;;;;;;;;;5064346;28;20082;-61
2023/02/18 10:06:12;;;;;;;6.50;4.68;;;;;;;;;;5037710;28;20069;-61
2023/02/18 10:08:45;;;;;;;6.45;4.75;;;;;;;;;;5048113;28;20041;-61
2023/02/18 10:11:15;;;;;;;6.53;4.55;;;;;;;;;;5066543;28;20051;-62
2023/02/18 10:13:40;;;;;;;6.28;4.97;;;;;;;;;;5047919;28;20471;-61
2023/02/18 10:16:06;;;;;;;6.45;4.90;;;;;;;;;;5066346;28;20048;-61
2023/02/18 10:18:31;;;;;;;6.97;4.77;;;;;;;;;;5048339;28;20123;-62
2023/02/18 10:21:00;;;;;;;7.13;4.70;;;;;;;;;;5048658;28;20070;-61
2023/02/18 10:23:25;;;;;;;6.07;4.82;;;;;;;;;;5046062;28;20098;-62
2023/02/18 10:25:50;;;;;;;6.73;4.73;;;;;;;;;;5048117;28;20516;-62
2023/02/18 10:28:16;;;;;;;6.17;4.57;;;;;;;;;;5066702;28;20631;-62
2023/02/18 10:30:42;;;;;;;5.93;4.47;;;;;;;;;;5047605;28;20286;-62
2023/02/18 10:33:26;;;;;;;5.68;4.68;;;;;;;;;;5040992;28;20508;-61
2023/02/18 10:35:52;;;;;;;6.63;4.60;;;;;;;;;;5059063;28;20056;-62
2023/02/18 10:38:20;;;;;;;6.45;4.70;;;;;;;;;;5065472;28;20554;-60
2023/02/18 10:40:46;;;;;;;7.15;4.63;;;;;;;;;;5065665;28;20023;-61
2023/02/18 10:43:14;;;;;;;5.57;4.43;;;;;;;;;;5043525;28;20028;-61
2023/02/18 10:45:57;;;;;;;7.10;4.47;;;;;;;;;;5065746;28;20740;-62
2023/02/18 10:48:37;;;;;;;5.20;4.25;;;;;;;;;;5056205;28;20040;-62
2023/02/18 10:51:07;;;;;;;6.47;4.43;;;;;;;;;;5065249;28;20037;-61
2023/02/18 10:53:33;;;;;;;5.90;4.72;;;;;;;;;;5045893;28;20123;-61
2023/02/18 10:55:58;;;;;;;6.47;4.88;;;;;;;;;;5045776;28;20483;-61
2023/02/18 10:58:27;;;;;;;5.47;4.40;;;;;;;;;;5047930;28;20282;-61
2023/02/18 11:00:52;;;;;;;6.60;4.53;;;;;;;;;;5062178;28;20060;-61
2023/02/18 11:03:18;;;;;;;4.95;4.30;;;;;;;;;;5057035;28;20075;-62
2023/02/18 11:05:44;;;;;;;5.82;4.30;;;;;;;;;;5063919;28;20028;-61
2023/02/18 11:08:10;;;;;;;5.65;4.07;;;;;;;;;;5047612;28;20098;-62
2023/02/18 11:10:37;;;;;;;5.70;4.35;;;;;;;;;;5046962;28;20094;-62
2023/02/18 11:13:04;;;;;;;7.97;4.78;;;;;;;;;;5045962;28;20202;-61
2023/02/18 11:15:29;;;;;;;4.90;4.25;;;;;;;;;;5064755;28;20080;-61
2023/02/18 11:17:56;;;;;;;5.68;4.40;;;;;;;;;;5047432;28;20059;-61
2023/02/18 11:20:28;;;;;;;6.45;4.50;;;;;;;;;;5064704;28;20441;-62
2023/02/18 11:22:57;;;;;;;6.32;4.32;;;;;;;;;;5064414;28;20464;-62
2023/02/18 11:25:23;;;;;;;5.30;4.37;;;;;;;;;;5054296;28;20515;-61
2023/02/18 11:27:59;;;;;;;5.65;4.15;;;;;;;;;;5065622;28;20061;-60
2023/02/18 11:30:26;;;;;;;5.68;4.30;;;;;;;;;;5029584;28;20029;-61
2023/02/18 11:32:53;;;;;;;5.93;4.40;;;;;;;;;;5064496;28;20068;-61
2023/02/18 11:35:22;;;;;;;6.05;4.50;;;;;;;;;;5034932;28;20044;-61
2023/02/18 11:37:47;;;;;;;4.93;3.88;;;;;;;;;;5036012;28;20036;-62
2023/02/18 11:40:23;;;;;;;5.57;4.07;;;;;;;;;;5030781;28;20036;-61
2023/02/18 11:42:48;;;;;;;5.70;4.38;;;;;;;;;;5027576;28;20029;-62
2023/02/18 11:45:27;;;;;;;5.70;4.03;;;;;;;;;;5061513;28;20055;-61
2023/02/18 11:48:06;;;;;;;4.78;3.90;;;;;;;;;;5064987;28;20298;-61
2023/02/18 11:50:31;;;;;;;7.63;4.30;;;;;;;;;;5064747;28;20056;-61
2023/02/18 11:52:58;;;;;;;4.80;3.80;;;;;;;;;;5046471;28;20029;-61
2023/02/18 11:55:26;;;;;;;5.50;4.15;;;;;;;;;;5040726;28;20127;-62
2023/02/18 11:58:02;;;;;;;4.97;4.07;;;;;;;;;;5046547;28;20036;-61
2023/02/18 12:00:40;;;;;;;5.10;3.92;;;;;;;;;;5044592;28;20028;-61
2023/02/18 12:03:26;;;;;;;6.28;4.32;;;;;;;;;;5059375;28;20021;-60
2023/02/18 12:05:51;;;;;;;6.00;3.90;;;;;;;;;;5041336;28;20172;-61
2023/02/18 12:08:21;;;;;;;4.80;4.00;;;;;;;;;;5064287;28;20083;-61
2023/02/18 12:10:48;;;;;;;5.40;3.90;;;;;;;;;;5013225;28;20136;-62
2023/02/18 12:13:24;;;;;;;5.60;3.75;;;;;;;;;;5031250;28;20048;-61
2023/02/18 12:15:53;;;;;;;5.13;3.88;;;;;;;;;;5030673;28;20088;-61
2023/02/18 12:18:33;;;;;;;5.10;4.20;;;;;;;;;;5044676;28;20572;-62
2023/02/18 12:21:09;;;;;;;5.05;3.90;;;;;;;;;;5054923;28;20121;-62
2023/02/18 12:23:55;;;;;;;5.50;4.13;;;;;;;;;;5064199;28;20106;-61
2023/02/18 12:26:25;;;;;;;5.28;3.88;;;;;;;;;;5063827;28;20033;-61
2023/02/18 12:29:09;;;;;;;5.93;4.13;;;;;;;;;;5029942;28;20036;-61
2023/02/18 12:31:35;;;;;;;5.72;3.80;;;;;;;;;;5063497;28;20543;-61
2023/02/18 12:34:09;;;;;;;4.57;3.57;;;;;;;;;;5060592;28;20052;-62
2023/02/18 12:36:49;;;;;;;4.38;3.75;;;;;;;;;;5044667;28;20341;-61
2023/02/18 12:39:30;;;;;;;5.60;4.00;;;;;;;;;;5063235;28;20488;-62
2023/02/18 12:41:58;;;;;;;5.10;3.70;;;;;;;;;;5056928;28;20393;-63
2023/02/18 12:44:35;;;;;;;4.47;3.67;;;;;;;;;;5061206;28;20048;-62
2023/02/18 12:47:19;;;;;;;5.85;3.67;;;;;;;;;;5037665;28;20033;-61
2023/02/18 12:50:04;;;;;;;4.90;3.97;;;;;;;;;;5065436;28;20043;-61
2023/02/18 12:52:38;;;;;;;4.13;3.20;;;;;;;;;;5054512;28;20063;-61
2023/02/18 12:55:22;;;;;;;5.78;3.72;;;;;;;;;;5063441;28;20060;-62
2023/02/18 12:57:58;;;;;;;6.43;4.05;;;;;;;;;;5042459;28;20549;-60
2023/02/18 13:00:32;;;;;;;6.85;3.90;;;;;;;;;;5026878;28;20060;-61
2023/02/18 13:03:10;;;;;;;5.93;3.40;;;;;;;;;;5063959;28;20115;-61
2023/02/18 13:05:35;;;;;;;6.15;3.65;;;;;;;;;;5045685;28;20035;-59
2023/02/18 13:08:30;;;;;;;7.53;3.47;;;;;;;;;;5063103;28;20040;-62
2023/02/18 13:11:16;;;;;;;5.32;2.80;;;;;;;;;;5034410;28;20033;-62
2023/02/18 13:13:44;;;;;;;5.10;3.30;;;;;;;;;;5029414;28;20036;-62
2023/02/18 13:16:14;;;;;;;4.32;2.63;;;;;;;;;;5067440;28;20105;-61
2023/02/18 13:18:39;;;;;;;4.25;2.80;;;;;;;;;;5048859;28;20047;-61
2023/02/18 13:21:14;;;;;;;5.63;2.40;;;;;;;;;;5063222;28;20515;-62
2023/02/18 13:23:58;;;;;;;4.53;2.63;;;;;;;;;;5044620;28;20040;-61
2023/02/18 13:26:24;;;;;;;3.47;2.38;;;;;;;;;;5062578;28;20093;-61
2023/02/18 13:29:08;;;;;;;5.87;3.00;;;;;;;;;;5049830;28;20537;-61
2023/02/18 13:31:51;;;;;;;3.95;2.50;;;;;;;;;;5055289;28;20021;-61
2023/02/18 13:34:17;;;;;;;4.63;2.78;;;;;;;;;;5054008;28;20429;-61
2023/02/18 13:36:48;;;;;;;5.43;2.83;;;;;;;;;;5049296;28;20356;-61
2023/02/18 13:39:19;;;;;;;5.22;2.95;;;;;;;;;;5048828;28;20055;-62
2023/02/18 13:41:44;;;;;;;6.40;2.80;;;;;;;;;;5058078;28;20036;-60
2023/02/18 13:44:15;;;;;;;5.05;3.38;;;;;;;;;;5066510;28;20043;-62
2023/02/18 13:46:48;;;;;;;5.85;3.45;;;;;;;;;;5067153;28;20029;-62
2023/02/18 13:49:13;;;;;;;6.13;3.30;;;;;;;;;;5032035;28;20064;-61
2023/02/18 13:51:39;;;;;;;5.93;3.33;;;;;;;;;;5047953;28;20051;-59
2023/02/18 13:54:16;;;;;;;6.47;3.50;;;;;;;;;;5022955;28;20289;-62
2023/02/18 13:56:42;;;;;;;5.28;3.38;;;;;;;;;;5066681;28;20096;-62
2023/02/18 13:59:14;;;;;;;5.88;3.47;;;;;;;;;;5066580;28;20035;-62
2023/02/18 14:01:43;;;;;;;5.07;3.22;;;;;;;;;;5024844;28;20292;-62
2023/02/18 14:04:28;;;;;;;8.10;3.70;;;;;;;;;;5066914;28;20024;-62
2023/02/18 14:07:29;;;;;;;6.93;3.85;;;;;;;;;;5066496;28;20488;-62
2023/02/18 14:09:55;;;;;;;5.25;3.63;;;;;;;;;;5022813;28;20042;-62
2023/02/18 14:12:29;;;;;;;5.63;3.58;;;;;;;;;;5056015;28;20041;-61
2023/02/18 14:14:54;;;;;;;7.57;3.72;;;;;;;;;;5066443;28;20044;-62
2023/02/18 14:17:20;;;;;;;6.87;3.53;;;;;;;;;;5041750;28;20095;-61
2023/02/18 14:19:54;;;;;;;5.93;3.40;;;;;;;;;;5048831;28;20282;-61
2023/02/18 14:22:25;;;;;;;4.80;3.15;;;;;;;;;;5066526;28;20044;-61
2023/02/18 14:24:54;;;;;;;6.53;3.72;;;;;;;;;;5063262;28;20028;-61
2023/02/18 14:27:20;;;;;;;6.60;3.90;;;;;;;;;;5057001;28;20064;-61
2023/02/18 14:29:45;;;;;;;7.93;3.40;;;;;;;;;;5043948;28;20028;-61
2023/02/18 14:32:10;;;;;;;7.07;3.37;;;;;;;;;;5065682;28;20082;-60
2023/02/18 14:34:35;;;;;;;6.90;3.43;;;;;;;;;;5065911;28;20052;-60
2023/02/18 14:37:19;;;;;;;5.80;3.23;;;;;;;;;;5066319;28;20290;-61
2023/02/18 14:39:51;;;;;;;5.70;3.30;;;;;;;;;;5064729;28;20029;-63
2023/02/18 14:42:16;;;;;;;6.07;3.40;;;;;;;;;;5020876;28;20148;-61
2023/02/18 14:44:46;;;;;;;7.20;3.93;;;;;;;;;;5046755;28;20111;-62
2023/02/18 14:47:21;;;;;;;6.90;3.55;;;;;;;;;;5058636;28;20291;-62
2023/02/18 14:49:47;;;;;;;6.10;3.75;;;;;;;;;;5052616;28;20528;-61
2023/02/18 14:52:15;;;;;;;6.80;3.50;;;;;;;;;;5045165;28;20102;-61